Time;durP1;ratioP1;P1;durP2;ratioP2;P2;SDS_P1;SDS_P2;PMS_P1;PMS_P2;Temp;Humidity;BMP_temperature;BMP_pressure;BME280_temperature;BME280_humidity;BME280_pressure;Samples;Min_cycle;Max_cycle;Signal;HPM_P1;HPM_P2
2022/01/24 00:00:15;;;;;;;4.32;2.53;;;;;;;;;;5043201;28;20044;-53
2022/01/24 00:02:42;;;;;;;4.50;3.03;;;;;;;;;;5043176;28;20817;-54
2022/01/24 00:05:07;;;;;;;4.32;2.60;;;;;;;;;;5038753;28;20554;-54
2022/01/24 00:07:33;;;;;;;4.15;2.88;;;;;;;;;;5030891;28;20029;-52
2022/01/24 00:10:01;;;;;;;4.82;3.17;;;;;;;;;;5043047;28;20083;-53
2022/01/24 00:28:05;;;;;;;4.43;2.65;;;;;;;;;;5035291;28;20548;-53
2022/01/24 00:30:31;;;;;;;4.53;2.60;;;;;;;;;;5042761;28;20025;-51
2022/01/24 00:32:56;;;;;;;4.93;2.60;;;;;;;;;;5042235;28;20815;-52
2022/01/24 00:35:21;;;;;;;5.07;2.80;;;;;;;;;;5042518;28;20037;-52
2022/01/24 00:37:46;;;;;;;3.72;2.40;;;;;;;;;;5042518;28;20029;-52
2022/01/24 00:40:12;;;;;;;3.35;2.17;;;;;;;;;;5042495;28;20047;-51
2022/01/24 00:42:53;;;;;;;4.90;2.72;;;;;;;;;;5042169;28;20033;-53
2022/01/24 00:53:17;;;;;;;4.35;2.40;;;;;;;;;;5042208;28;20043;-53
2022/01/24 00:55:42;;;;;;;4.00;2.50;;;;;;;;;;5032860;28;20037;-52
2022/01/24 00:58:07;;;;;;;4.28;2.42;;;;;;;;;;5034325;28;20037;-53
2022/01/24 01:00:33;;;;;;;3.70;2.73;;;;;;;;;;5042077;28;20077;-54
2022/01/24 01:02:58;;;;;;;3.90;2.40;;;;;;;;;;5041973;28;20765;-53
2022/01/24 01:05:59;;;;;;;3.97;2.40;;;;;;;;;;5035883;28;20433;-53
2022/01/24 01:18:46;;;;;;;3.55;2.40;;;;;;;;;;5039416;28;20083;-54
2022/01/24 01:21:13;;;;;;;4.40;2.60;;;;;;;;;;5020599;28;20487;-53
2022/01/24 01:23:41;;;;;;;4.10;2.47;;;;;;;;;;5030391;28;20115;-52
2022/01/24 01:26:15;;;;;;;5.15;2.60;;;;;;;;;;5029754;28;20112;-53
2022/01/24 01:28:43;;;;;;;3.38;2.35;;;;;;;;;;5038478;28;20025;-53
2022/01/24 01:31:16;;;;;;;3.28;2.15;;;;;;;;;;5041379;28;20092;-53
2022/01/24 01:33:57;;;;;;;3.05;2.35;;;;;;;;;;5041851;28;20533;-53
2022/01/24 01:52:48;;;;;;;3.20;2.20;;;;;;;;;;5041276;28;20039;-53
2022/01/24 01:55:36;;;;;;;3.95;2.50;;;;;;;;;;5020514;28;20459;-54
2022/01/24 01:58:02;;;;;;;3.92;2.22;;;;;;;;;;5032631;28;20399;-53
2022/01/24 02:00:27;;;;;;;3.33;1.88;;;;;;;;;;5041243;28;20850;-53
2022/01/24 02:02:53;;;;;;;2.93;2.30;;;;;;;;;;5041306;28;20025;-53
2022/01/24 02:05:18;;;;;;;4.53;2.57;;;;;;;;;;5036068;28;20458;-54
2022/01/24 02:07:44;;;;;;;3.78;2.50;;;;;;;;;;5030290;28;20267;-52
2022/01/24 02:10:09;;;;;;;4.10;2.28;;;;;;;;;;5041393;28;20106;-52
2022/01/24 02:12:34;;;;;;;4.00;2.53;;;;;;;;;;5041560;28;20107;-52
2022/01/24 02:15:00;;;;;;;3.70;2.37;;;;;;;;;;5038478;28;20322;-52
2022/01/24 02:17:58;;;;;;;3.92;2.28;;;;;;;;;;5027709;28;20262;-53
2022/01/24 02:22:51;;;;;;;3.60;2.53;;;;;;;;;;5024798;28;20143;-51
2022/01/24 02:25:25;;;;;;;4.15;2.63;;;;;;;;;;5039736;28;20551;-52
2022/01/24 02:27:56;;;;;;;4.05;2.45;;;;;;;;;;5034443;28;20025;-53
2022/01/24 02:32:50;;;;;;;4.03;2.08;;;;;;;;;;5044990;28;20511;-53
2022/01/24 02:35:15;;;;;;;3.53;2.10;;;;;;;;;;5039953;28;20022;-56
2022/01/24 02:37:40;;;;;;;3.40;2.17;;;;;;;;;;5032771;28;20074;-53
2022/01/24 02:40:18;;;;;;;3.00;2.27;;;;;;;;;;5044507;28;20809;-52
2022/01/24 02:48:25;;;;;;;4.20;2.50;;;;;;;;;;5037168;28;20086;-52
2022/01/24 02:53:38;;;;;;;4.20;2.47;;;;;;;;;;5044474;28;20040;-51
2022/01/24 02:56:03;;;;;;;4.10;2.25;;;;;;;;;;5033322;28;20029;-51
2022/01/24 02:58:28;;;;;;;3.83;2.38;;;;;;;;;;5039383;28;20025;-52
2022/01/24 03:00:54;;;;;;;3.42;2.40;;;;;;;;;;5044435;28;20487;-51
2022/01/24 03:03:20;;;;;;;3.78;2.25;;;;;;;;;;5044236;28;20087;-52
2022/01/24 03:05:45;;;;;;;3.17;2.17;;;;;;;;;;5035167;28;20057;-57
2022/01/24 03:08:12;;;;;;;3.38;2.25;;;;;;;;;;5036519;28;20785;-50
2022/01/24 03:10:41;;;;;;;3.35;2.10;;;;;;;;;;5044166;28;20562;-51
2022/01/24 03:15:50;;;;;;;3.90;2.47;;;;;;;;;;5034731;28;20132;-54
2022/01/24 03:18:15;;;;;;;3.45;2.30;;;;;;;;;;5036984;28;20074;-51
2022/01/24 03:20:41;;;;;;;3.20;2.30;;;;;;;;;;5044023;28;20526;-51
2022/01/24 03:23:06;;;;;;;3.03;2.15;;;;;;;;;;5043903;28;20017;-52
2022/01/24 03:25:32;;;;;;;3.30;2.40;;;;;;;;;;5037154;28;20419;-51
2022/01/24 03:27:57;;;;;;;3.60;2.30;;;;;;;;;;5034030;28;20024;-51
2022/01/24 03:30:23;;;;;;;3.70;2.35;;;;;;;;;;5043795;28;20271;-52
2022/01/24 03:32:48;;;;;;;3.65;2.28;;;;;;;;;;5042997;28;20025;-51
2022/01/24 03:35:13;;;;;;;3.63;2.10;;;;;;;;;;5039062;28;20523;-52
2022/01/24 03:37:38;;;;;;;3.23;2.30;;;;;;;;;;5031265;28;20880;-53
2022/01/24 03:40:04;;;;;;;3.63;2.53;;;;;;;;;;5043376;28;20902;-53
2022/01/24 03:42:29;;;;;;;4.72;2.70;;;;;;;;;;5043112;28;20569;-54
2022/01/24 03:44:58;;;;;;;3.33;2.38;;;;;;;;;;5041378;28;20395;-53
2022/01/24 03:48:06;;;;;;;3.50;2.28;;;;;;;;;;5028947;28;20025;-53
2022/01/24 03:50:17;;;;;;;3.88;2.45;;;;;;;;;;5040223;28;20534;-53
2022/01/24 03:52:43;;;;;;;4.38;2.47;;;;;;;;;;5042302;28;20028;-53
2022/01/24 03:55:08;;;;;;;3.30;2.05;;;;;;;;;;5039227;28;20029;-53
2022/01/24 03:57:33;;;;;;;3.78;2.30;;;;;;;;;;5029796;28;21205;-51
2022/01/24 03:59:58;;;;;;;3.27;2.13;;;;;;;;;;5042835;28;20060;-52
2022/01/24 04:02:25;;;;;;;3.60;2.30;;;;;;;;;;5042776;28;20337;-53
2022/01/24 04:04:50;;;;;;;3.72;2.17;;;;;;;;;;5041619;28;20041;-53
2022/01/24 04:07:16;;;;;;;4.05;2.33;;;;;;;;;;5027380;28;20032;-52
2022/01/24 04:09:42;;;;;;;3.72;2.10;;;;;;;;;;5042927;28;20020;-53
2022/01/24 04:12:08;;;;;;;3.90;2.50;;;;;;;;;;5043078;28;20036;-52
2022/01/24 04:14:56;;;;;;;3.63;2.30;;;;;;;;;;5042680;28;20538;-53
2022/01/24 04:17:25;;;;;;;3.50;2.22;;;;;;;;;;5028012;28;20036;-54
2022/01/24 04:22:19;;;;;;;3.85;2.28;;;;;;;;;;5042705;28;20123;-53
2022/01/24 04:24:45;;;;;;;3.92;2.50;;;;;;;;;;5042482;28;20494;-52
2022/01/24 04:27:11;;;;;;;3.70;2.30;;;;;;;;;;5026329;28;20017;-53
2022/01/24 04:29:36;;;;;;;3.40;2.50;;;;;;;;;;5042563;28;20063;-52
2022/01/24 04:32:01;;;;;;;3.27;2.33;;;;;;;;;;5042408;28;20407;-51
2022/01/24 04:34:26;;;;;;;3.92;2.15;;;;;;;;;;5042490;28;20345;-52
2022/01/24 04:36:52;;;;;;;3.93;2.50;;;;;;;;;;5025524;28;20475;-52
2022/01/24 04:39:17;;;;;;;3.57;2.30;;;;;;;;;;5042576;28;20487;-52
2022/01/24 04:41:46;;;;;;;4.07;2.08;;;;;;;;;;5042380;28;21134;-53
2022/01/24 04:54:44;;;;;;;4.07;2.40;;;;;;;;;;5042222;28;20112;-52
2022/01/24 04:57:10;;;;;;;3.28;2.30;;;;;;;;;;5025314;28;20025;-56
2022/01/24 04:59:35;;;;;;;4.18;2.40;;;;;;;;;;5041881;28;20445;-55
2022/01/24 05:02:01;;;;;;;4.00;2.50;;;;;;;;;;5041821;28;20033;-53
2022/01/24 05:04:26;;;;;;;3.25;2.20;;;;;;;;;;5041838;28;20045;-55
2022/01/24 05:06:52;;;;;;;4.73;2.57;;;;;;;;;;5025393;28;20033;-52
2022/01/24 05:09:18;;;;;;;3.30;1.98;;;;;;;;;;5042070;28;20384;-56
2022/01/24 05:24:46;;;;;;;3.97;2.00;;;;;;;;;;5041666;28;20108;-54
2022/01/24 05:27:11;;;;;;;3.53;2.13;;;;;;;;;;5025140;28;20108;-54
2022/01/24 05:29:36;;;;;;;3.13;2.13;;;;;;;;;;5041557;28;20271;-54
2022/01/24 05:32:02;;;;;;;3.10;2.23;;;;;;;;;;5041468;28;20035;-52
2022/01/24 05:34:27;;;;;;;4.90;2.70;;;;;;;;;;5041045;28;20623;-54
2022/01/24 05:36:52;;;;;;;3.30;2.10;;;;;;;;;;5024894;28;20116;-54
2022/01/24 05:39:18;;;;;;;4.50;2.40;;;;;;;;;;5041549;28;20029;-53
2022/01/24 05:41:43;;;;;;;3.47;2.28;;;;;;;;;;5041523;28;20303;-54
2022/01/24 05:44:08;;;;;;;3.80;2.45;;;;;;;;;;5041517;28;20040;-54
2022/01/24 05:46:33;;;;;;;3.20;2.53;;;;;;;;;;5026821;28;20088;-54
2022/01/24 05:48:59;;;;;;;3.88;2.33;;;;;;;;;;5039733;28;20024;-52
2022/01/24 05:51:24;;;;;;;3.90;2.40;;;;;;;;;;5041419;28;20040;-53
2022/01/24 05:53:49;;;;;;;3.15;2.13;;;;;;;;;;5040963;28;20029;-53
2022/01/24 05:56:15;;;;;;;3.40;2.60;;;;;;;;;;5032999;28;20028;-54
2022/01/24 05:58:40;;;;;;;3.33;2.30;;;;;;;;;;5033824;28;20041;-52
2022/01/24 06:01:05;;;;;;;3.63;2.33;;;;;;;;;;5044005;28;20295;-54
2022/01/24 06:03:30;;;;;;;3.53;2.60;;;;;;;;;;5039968;28;20818;-55
2022/01/24 06:05:56;;;;;;;10.75;2.90;;;;;;;;;;4991637;28;20304;-54
2022/01/24 06:08:21;;;;;;;5.33;2.13;;;;;;;;;;5004727;28;20029;-54
2022/01/24 06:10:47;;;;;;;6.53;3.17;;;;;;;;;;5021738;28;20285;-53
2022/01/24 06:13:13;;;;;;;8.13;2.88;;;;;;;;;;5009115;28;20271;-54
2022/01/24 06:15:38;;;;;;;8.38;3.17;;;;;;;;;;5018122;28;20034;-55
2022/01/24 06:18:03;;;;;;;8.10;3.10;;;;;;;;;;5015525;28;20032;-53
2022/01/24 06:20:28;;;;;;;10.60;2.97;;;;;;;;;;5025056;28;20386;-53
2022/01/24 06:22:54;;;;;;;8.23;2.73;;;;;;;;;;5010754;28;20304;-53
2022/01/24 06:25:24;;;;;;;9.07;2.73;;;;;;;;;;5020796;28;20332;-53
2022/01/24 06:27:49;;;;;;;10.68;3.17;;;;;;;;;;5013453;28;20128;-53
2022/01/24 06:30:15;;;;;;;7.70;3.17;;;;;;;;;;5012363;28;20168;-53
2022/01/24 06:32:40;;;;;;;11.45;3.15;;;;;;;;;;5009016;28;20016;-53
2022/01/24 06:35:06;;;;;;;9.77;3.70;;;;;;;;;;5005557;28;20646;-53
2022/01/24 06:37:31;;;;;;;12.02;3.35;;;;;;;;;;5005480;28;20477;-53
2022/01/24 06:39:57;;;;;;;12.63;3.80;;;;;;;;;;5008535;28;20044;-53
2022/01/24 06:42:23;;;;;;;7.32;2.95;;;;;;;;;;5012318;28;20363;-54
2022/01/24 06:44:49;;;;;;;8.75;2.92;;;;;;;;;;5005304;28;20033;-53
2022/01/24 06:47:14;;;;;;;12.68;3.50;;;;;;;;;;5005144;28;20947;-53
2022/01/24 06:49:39;;;;;;;10.00;3.33;;;;;;;;;;5005261;28;20038;-53
2022/01/24 06:52:06;;;;;;;12.75;3.20;;;;;;;;;;5005114;28;20279;-52
2022/01/24 06:54:31;;;;;;;13.88;3.53;;;;;;;;;;5005020;28;20463;-52
2022/01/24 06:56:57;;;;;;;11.63;3.45;;;;;;;;;;5004864;28;20033;-53
2022/01/24 06:59:22;;;;;;;11.98;3.55;;;;;;;;;;5005025;28;20084;-52
2022/01/24 07:01:47;;;;;;;11.30;3.83;;;;;;;;;;5004959;28;20034;-52
2022/01/24 07:04:13;;;;;;;9.43;3.70;;;;;;;;;;5008651;28;20033;-52
2022/01/24 07:06:38;;;;;;;8.10;3.40;;;;;;;;;;5022690;28;20036;-52
2022/01/24 07:09:03;;;;;;;9.65;3.67;;;;;;;;;;5025202;28;20025;-52
2022/01/24 07:11:29;;;;;;;9.98;3.00;;;;;;;;;;5024618;28;20026;-55
2022/01/24 07:13:54;;;;;;;8.40;3.28;;;;;;;;;;5026419;28;20029;-51
2022/01/24 07:16:19;;;;;;;10.18;3.35;;;;;;;;;;5022358;28;20324;-51
2022/01/24 07:19:03;;;;;;;10.30;3.23;;;;;;;;;;5026223;28;20554;-52
2022/01/24 07:21:28;;;;;;;8.55;3.50;;;;;;;;;;5033478;28;20685;-54
2022/01/24 07:23:54;;;;;;;8.35;3.03;;;;;;;;;;5023686;28;20017;-52
2022/01/24 07:26:19;;;;;;;9.47;3.20;;;;;;;;;;5028618;28;20112;-51
2022/01/24 07:28:44;;;;;;;9.57;3.30;;;;;;;;;;5028663;28;20167;-51
2022/01/24 07:31:10;;;;;;;10.68;3.22;;;;;;;;;;5040352;28;20115;-52
2022/01/24 07:33:35;;;;;;;9.30;3.00;;;;;;;;;;5025956;28;20039;-52
2022/01/24 07:36:00;;;;;;;8.53;3.40;;;;;;;;;;5022422;28;20440;-52
2022/01/24 07:38:25;;;;;;;8.48;3.40;;;;;;;;;;5026974;28;20633;-53
2022/01/24 07:40:53;;;;;;;10.68;3.10;;;;;;;;;;5026978;28;20034;-53
2022/01/24 07:43:19;;;;;;;8.68;3.40;;;;;;;;;;5026405;28;20025;-52
2022/01/24 07:45:45;;;;;;;7.82;3.15;;;;;;;;;;5025879;28;20021;-53
2022/01/24 07:48:10;;;;;;;10.23;3.10;;;;;;;;;;5025629;28;20410;-53
2022/01/24 07:50:37;;;;;;;9.95;3.03;;;;;;;;;;5026270;28;20067;-52
2022/01/24 07:53:02;;;;;;;9.88;3.33;;;;;;;;;;5026326;28;20043;-52
2022/01/24 07:55:27;;;;;;;11.93;4.18;;;;;;;;;;5024211;28;20026;-53
2022/01/24 07:57:53;;;;;;;11.38;3.20;;;;;;;;;;5025607;28;20129;-52
2022/01/24 08:00:18;;;;;;;11.77;4.00;;;;;;;;;;5024922;28;20389;-53
2022/01/24 08:02:43;;;;;;;9.02;3.38;;;;;;;;;;5022349;28;20029;-52
2022/01/24 08:05:09;;;;;;;10.43;3.27;;;;;;;;;;5027193;28;20427;-53
2022/01/24 08:07:34;;;;;;;10.13;3.25;;;;;;;;;;5026087;28;20443;-53
2022/01/24 08:09:59;;;;;;;9.52;3.58;;;;;;;;;;5025473;28;20017;-52
2022/01/24 08:12:25;;;;;;;9.40;3.43;;;;;;;;;;5024953;28;20496;-52
2022/01/24 08:14:50;;;;;;;9.05;3.40;;;;;;;;;;5024483;28;20024;-52
2022/01/24 08:17:15;;;;;;;7.20;3.60;;;;;;;;;;5024323;28;20627;-53
2022/01/24 08:19:41;;;;;;;10.20;3.50;;;;;;;;;;5028236;28;20461;-52
2022/01/24 08:22:06;;;;;;;8.23;2.77;;;;;;;;;;5028430;28;20597;-53
2022/01/24 08:24:31;;;;;;;7.90;3.38;;;;;;;;;;5021161;28;20483;-52
2022/01/24 08:26:56;;;;;;;10.33;3.27;;;;;;;;;;5024345;28;20035;-52
2022/01/24 08:29:22;;;;;;;8.95;3.42;;;;;;;;;;5021494;28;20303;-52
2022/01/24 08:31:47;;;;;;;18.73;3.77;;;;;;;;;;5025376;28;20120;-52
2022/01/24 08:34:12;;;;;;;9.87;3.77;;;;;;;;;;5022658;28;20113;-52
2022/01/24 08:36:37;;;;;;;6.43;2.83;;;;;;;;;;5022064;28;20264;-52
2022/01/24 08:39:07;;;;;;;7.57;3.20;;;;;;;;;;5025626;28;20638;-53
2022/01/24 08:41:43;;;;;;;7.53;2.88;;;;;;;;;;5004433;28;20303;-54
2022/01/24 08:44:19;;;;;;;8.13;3.25;;;;;;;;;;5023873;28;20032;-53
2022/01/24 08:46:45;;;;;;;11.07;3.50;;;;;;;;;;5022068;28;20037;-53
2022/01/24 08:49:11;;;;;;;6.65;3.15;;;;;;;;;;5025552;28;20036;-53
2022/01/24 08:51:36;;;;;;;9.15;3.50;;;;;;;;;;5024727;28;20046;-54
2022/01/24 08:54:02;;;;;;;6.80;2.90;;;;;;;;;;5024785;28;20017;-53
2022/01/24 08:56:28;;;;;;;7.97;3.05;;;;;;;;;;5021442;28;20383;-53
2022/01/24 08:58:53;;;;;;;6.18;2.90;;;;;;;;;;5024867;28;20091;-53
2022/01/24 09:01:18;;;;;;;5.47;2.90;;;;;;;;;;5024171;28;20414;-52
2022/01/24 09:03:43;;;;;;;6.37;2.53;;;;;;;;;;5024595;28;20460;-53
2022/01/24 09:06:09;;;;;;;6.90;3.00;;;;;;;;;;5024589;28;20313;-53
2022/01/24 09:08:35;;;;;;;7.55;2.75;;;;;;;;;;5004164;28;20329;-53
2022/01/24 09:11:00;;;;;;;6.53;3.00;;;;;;;;;;5025254;28;20029;-52
2022/01/24 09:13:25;;;;;;;3.55;2.25;;;;;;;;;;5027145;28;20657;-52
2022/01/24 09:15:50;;;;;;;5.87;2.50;;;;;;;;;;5021372;28;20091;-52
2022/01/24 09:18:16;;;;;;;6.27;2.60;;;;;;;;;;5022928;28;20016;-52
2022/01/24 09:20:41;;;;;;;7.20;2.97;;;;;;;;;;5020442;28;20852;-52
2022/01/24 09:23:07;;;;;;;4.10;2.43;;;;;;;;;;5021090;28;20450;-52
2022/01/24 09:25:32;;;;;;;5.32;2.40;;;;;;;;;;5024178;28;20291;-53
2022/01/24 09:27:57;;;;;;;5.28;2.60;;;;;;;;;;5027855;28;20013;-52
2022/01/24 09:30:23;;;;;;;5.27;2.43;;;;;;;;;;5024959;28;20048;-52
2022/01/24 09:32:48;;;;;;;5.25;2.50;;;;;;;;;;5027429;28;20025;-52
2022/01/24 09:35:14;;;;;;;5.78;2.70;;;;;;;;;;5024629;28;20101;-52
2022/01/24 09:37:39;;;;;;;5.50;2.40;;;;;;;;;;5024943;28;20025;-52
2022/01/24 09:40:05;;;;;;;4.50;2.50;;;;;;;;;;5024991;28;20411;-51
2022/01/24 09:42:30;;;;;;;4.15;2.15;;;;;;;;;;5020343;28;20033;-52
2022/01/24 09:44:55;;;;;;;3.90;2.00;;;;;;;;;;5004192;28;20017;-52
2022/01/24 09:47:20;;;;;;;4.70;2.97;;;;;;;;;;5027693;28;20067;-52
2022/01/24 09:49:46;;;;;;;5.00;2.57;;;;;;;;;;5021487;28;20037;-52
2022/01/24 09:52:11;;;;;;;5.93;2.50;;;;;;;;;;5023072;28;20029;-52
2022/01/24 09:54:36;;;;;;;4.90;2.43;;;;;;;;;;5024861;28;20078;-51
2022/01/24 09:57:02;;;;;;;5.00;2.50;;;;;;;;;;5019834;28;20037;-52
2022/01/24 09:59:28;;;;;;;4.80;2.35;;;;;;;;;;5024325;28;20299;-52
2022/01/24 10:01:54;;;;;;;4.45;2.40;;;;;;;;;;5019829;28;20029;-53
2022/01/24 10:04:20;;;;;;;3.42;2.15;;;;;;;;;;5024452;28;20044;-54
2022/01/24 10:06:55;;;;;;;4.70;2.60;;;;;;;;;;5038361;28;20055;-54
2022/01/24 10:09:27;;;;;;;5.80;2.40;;;;;;;;;;5041298;28;20029;-55
2022/01/24 10:12:04;;;;;;;4.78;2.50;;;;;;;;;;5042761;28;20273;-53
2022/01/24 10:17:23;;;;;;;7.10;3.05;;;;;;;;;;5025098;28;20031;-53
2022/01/24 10:19:49;;;;;;;4.80;2.55;;;;;;;;;;5041511;28;20025;-55
2022/01/24 10:22:14;;;;;;;6.13;3.03;;;;;;;;;;5031161;28;20427;-56
2022/01/24 10:24:44;;;;;;;5.13;3.20;;;;;;;;;;5035318;28;20059;-55
2022/01/24 10:27:23;;;;;;;4.22;2.88;;;;;;;;;;5021281;28;20620;-55
2022/01/24 10:29:55;;;;;;;5.90;2.93;;;;;;;;;;5041182;28;20044;-53
2022/01/24 10:32:40;;;;;;;5.07;2.63;;;;;;;;;;5041470;28;20566;-54
2022/01/24 10:35:23;;;;;;;5.97;2.88;;;;;;;;;;5040311;28;20123;-54
2022/01/24 10:37:51;;;;;;;4.15;2.42;;;;;;;;;;5035391;28;20074;-54
2022/01/24 10:40:36;;;;;;;4.28;2.47;;;;;;;;;;5041707;28;20033;-53
2022/01/24 10:43:15;;;;;;;4.07;2.40;;;;;;;;;;5027899;28;20495;-53
2022/01/24 10:45:44;;;;;;;4.43;2.60;;;;;;;;;;5044720;28;20491;-54
2022/01/24 10:48:09;;;;;;;5.30;2.78;;;;;;;;;;5044883;28;20037;-54
2022/01/24 10:50:34;;;;;;;5.57;2.77;;;;;;;;;;5030937;28;20025;-52
2022/01/24 10:53:08;;;;;;;3.05;2.35;;;;;;;;;;5027549;28;20283;-54
2022/01/24 10:55:33;;;;;;;5.18;2.67;;;;;;;;;;5024942;28;20028;-54
2022/01/24 10:58:08;;;;;;;4.38;2.20;;;;;;;;;;5032318;28;20507;-54
2022/01/24 11:00:33;;;;;;;5.30;2.35;;;;;;;;;;5039832;28;20134;-56
2022/01/24 11:03:03;;;;;;;3.90;2.50;;;;;;;;;;5024750;28;20535;-54
2022/01/24 11:05:28;;;;;;;3.85;2.17;;;;;;;;;;5011295;28;20052;-52
2022/01/24 11:07:56;;;;;;;5.13;2.50;;;;;;;;;;5044733;28;20025;-52
2022/01/24 11:10:21;;;;;;;5.43;2.55;;;;;;;;;;5044783;28;20044;-53
2022/01/24 11:12:47;;;;;;;3.75;2.45;;;;;;;;;;5045385;28;20025;-53
2022/01/24 11:15:12;;;;;;;2.75;1.88;;;;;;;;;;5043671;28;20031;-54
2022/01/24 11:17:38;;;;;;;3.47;2.30;;;;;;;;;;5029845;28;20605;-53
2022/01/24 11:20:03;;;;;;;5.35;2.60;;;;;;;;;;5044974;28;20063;-53
2022/01/24 11:22:31;;;;;;;3.17;2.33;;;;;;;;;;5033671;28;20029;-52
2022/01/24 11:25:00;;;;;;;3.75;2.30;;;;;;;;;;5041444;28;20029;-53
2022/01/24 11:27:25;;;;;;;4.50;2.35;;;;;;;;;;5026592;28;20417;-55
2022/01/24 11:29:51;;;;;;;3.67;2.30;;;;;;;;;;5044673;28;20518;-54
2022/01/24 11:32:28;;;;;;;4.20;2.50;;;;;;;;;;5037432;28;20032;-54
2022/01/24 11:34:54;;;;;;;3.88;2.17;;;;;;;;;;5035229;28;20091;-55
2022/01/24 11:37:38;;;;;;;3.30;2.17;;;;;;;;;;5030948;28;20474;-54
2022/01/24 11:40:07;;;;;;;3.40;2.08;;;;;;;;;;5025033;28;20029;-53
2022/01/24 11:42:35;;;;;;;4.77;2.30;;;;;;;;;;5024517;28;20025;-52
2022/01/24 11:45:05;;;;;;;3.30;2.28;;;;;;;;;;5027799;28;20048;-53
2022/01/24 11:47:31;;;;;;;;;;;;;;;;;;5030350;28;20513;-54
2022/01/24 11:49:56;;;;;;;3.58;2.28;;;;;;;;;;5038412;28;20031;-54
2022/01/24 11:52:29;;;;;;;4.00;2.35;;;;;;;;;;5024856;28;20117;-53
2022/01/24 11:55:06;;;;;;;4.55;2.28;;;;;;;;;;5024895;28;20731;-54
2022/01/24 11:57:34;;;;;;;4.50;2.10;;;;;;;;;;5025048;28;20498;-53
2022/01/24 12:00:04;;;;;;;3.13;2.50;;;;;;;;;;5024949;28;20029;-52
2022/01/24 12:02:30;;;;;;;3.95;1.92;;;;;;;;;;5022781;28;20124;-53
2022/01/24 12:04:55;;;;;;;4.03;2.25;;;;;;;;;;5007273;28;20645;-53
2022/01/24 12:07:21;;;;;;;3.77;2.20;;;;;;;;;;5026695;28;20025;-52
2022/01/24 12:09:47;;;;;;;3.67;2.15;;;;;;;;;;5025121;28;20658;-53
2022/01/24 12:12:34;;;;;;;4.88;2.83;;;;;;;;;;5027588;28;20010;-51
2022/01/24 12:15:00;;;;;;;3.53;2.35;;;;;;;;;;5028177;28;20032;-52
2022/01/24 12:17:44;;;;;;;3.97;2.30;;;;;;;;;;5007688;28;20021;-52
2022/01/24 12:20:28;;;;;;;3.88;2.30;;;;;;;;;;5026091;28;20025;-54
2022/01/24 12:22:53;;;;;;;3.47;2.30;;;;;;;;;;5028530;28;20052;-52
2022/01/24 12:25:18;;;;;;;4.07;2.30;;;;;;;;;;5027364;28;20056;-53
2022/01/24 12:28:02;;;;;;;3.27;2.03;;;;;;;;;;5006138;28;20053;-51
2022/01/24 12:30:46;;;;;;;3.67;2.60;;;;;;;;;;5025480;28;20777;-55
2022/01/24 12:33:11;;;;;;;3.75;2.33;;;;;;;;;;5024861;28;20037;-52
2022/01/24 12:35:37;;;;;;;3.20;2.10;;;;;;;;;;5004630;28;20013;-52
2022/01/24 12:38:15;;;;;;;3.37;2.20;;;;;;;;;;5009344;28;20092;-52
2022/01/24 12:40:40;;;;;;;2.95;1.90;;;;;;;;;;5036065;28;20295;-52
2022/01/24 12:43:08;;;;;;;3.63;2.15;;;;;;;;;;5021304;28;20037;-51
2022/01/24 12:48:17;;;;;;;3.95;2.20;;;;;;;;;;5042775;28;20098;-53
2022/01/24 12:50:43;;;;;;;3.25;2.20;;;;;;;;;;5035490;28;20104;-51
2022/01/24 12:53:12;;;;;;;3.60;2.08;;;;;;;;;;5029795;28;20527;-52
2022/01/24 12:55:37;;;;;;;3.15;2.42;;;;;;;;;;5021262;28;20057;-52
2022/01/24 12:58:02;;;;;;;3.23;2.20;;;;;;;;;;5026952;28;20102;-53
2022/01/24 13:00:29;;;;;;;3.47;2.30;;;;;;;;;;5020917;28;20808;-53
2022/01/24 13:02:54;;;;;;;4.07;2.25;;;;;;;;;;5026701;28;20028;-53
2022/01/24 13:05:23;;;;;;;3.27;2.17;;;;;;;;;;5027923;28;20045;-52
2022/01/24 13:07:51;;;;;;;4.10;2.30;;;;;;;;;;5029606;28;20333;-53
2022/01/24 13:10:17;;;;;;;3.08;2.20;;;;;;;;;;5033030;28;20032;-52
2022/01/24 13:12:42;;;;;;;2.58;1.98;;;;;;;;;;5045051;28;20033;-52
2022/01/24 13:15:20;;;;;;;2.80;1.92;;;;;;;;;;5027800;28;20029;-52
2022/01/24 13:23:14;;;;;;;3.08;2.20;;;;;;;;;;5027954;28;20064;-52
2022/01/24 13:25:40;;;;;;;3.22;2.40;;;;;;;;;;5030080;28;20021;-52
2022/01/24 13:28:06;;;;;;;2.53;2.15;;;;;;;;;;5027567;28;20095;-54
2022/01/24 13:30:32;;;;;;;3.63;2.42;;;;;;;;;;5026475;28;20545;-52
2022/01/24 13:33:05;;;;;;;3.10;2.20;;;;;;;;;;5026604;28;20088;-53
2022/01/24 13:35:31;;;;;;;3.67;2.05;;;;;;;;;;5035909;28;20028;-53
2022/01/24 13:37:57;;;;;;;2.72;1.92;;;;;;;;;;5011639;28;20024;-51
2022/01/24 13:40:31;;;;;;;2.80;2.17;;;;;;;;;;5041949;28;20094;-52
2022/01/24 13:42:57;;;;;;;4.38;2.17;;;;;;;;;;5034004;28;20029;-53
2022/01/24 13:45:22;;;;;;;3.30;2.07;;;;;;;;;;5040682;28;20577;-53
2022/01/24 13:47:57;;;;;;;3.00;2.00;;;;;;;;;;5042129;28;20346;-54
2022/01/24 13:50:22;;;;;;;3.75;2.30;;;;;;;;;;5030580;28;20670;-53
2022/01/24 13:52:51;;;;;;;3.53;2.20;;;;;;;;;;5025052;28;20084;-52
2022/01/24 13:55:16;;;;;;;3.67;2.45;;;;;;;;;;5020806;28;20049;-53
2022/01/24 13:57:51;;;;;;;3.60;2.22;;;;;;;;;;5025630;28;20041;-53
2022/01/24 14:00:26;;;;;;;3.63;2.20;;;;;;;;;;5033929;28;20041;-54
2022/01/24 14:03:05;;;;;;;3.08;1.80;;;;;;;;;;5017278;28;20101;-51
2022/01/24 14:05:30;;;;;;;3.50;2.00;;;;;;;;;;5024516;28;20041;-53
2022/01/24 14:07:56;;;;;;;3.30;2.10;;;;;;;;;;5025933;28;20017;-53
2022/01/24 14:10:21;;;;;;;3.10;1.93;;;;;;;;;;5004009;28;20610;-53
2022/01/24 14:12:52;;;;;;;2.60;2.03;;;;;;;;;;5035423;28;20311;-52
2022/01/24 14:15:27;;;;;;;2.70;2.05;;;;;;;;;;5024615;28;20038;-52
2022/01/24 14:20:42;;;;;;;3.13;2.42;;;;;;;;;;5028223;28;20037;-52
2022/01/24 14:23:19;;;;;;;3.22;2.30;;;;;;;;;;5040766;28;20028;-53
2022/01/24 14:25:44;;;;;;;3.17;2.35;;;;;;;;;;5028205;28;20020;-52
2022/01/24 14:28:10;;;;;;;2.60;1.90;;;;;;;;;;5032747;28;20031;-53
2022/01/24 14:30:38;;;;;;;3.35;2.35;;;;;;;;;;5031580;28;20271;-54
2022/01/24 14:33:12;;;;;;;2.78;2.15;;;;;;;;;;5024114;28;20028;-53
2022/01/24 14:35:56;;;;;;;3.30;2.38;;;;;;;;;;5028591;28;20534;-51
2022/01/24 14:38:31;;;;;;;2.75;2.13;;;;;;;;;;5045188;28;20053;-52
2022/01/24 14:41:01;;;;;;;3.30;2.35;;;;;;;;;;5044784;28;20178;-54
2022/01/24 14:46:14;;;;;;;5.40;2.20;;;;;;;;;;5045504;28;20555;-53
2022/01/24 14:48:46;;;;;;;3.60;2.13;;;;;;;;;;5045159;28;20530;-53
2022/01/24 14:51:11;;;;;;;2.97;2.05;;;;;;;;;;5044955;28;20029;-54
2022/01/24 14:53:36;;;;;;;3.35;2.15;;;;;;;;;;5042062;28;20021;-54
2022/01/24 14:56:02;;;;;;;3.35;2.33;;;;;;;;;;5024637;28;20179;-53
2022/01/24 14:58:27;;;;;;;3.55;2.33;;;;;;;;;;5028527;28;20033;-53
2022/01/24 15:00:53;;;;;;;2.90;2.30;;;;;;;;;;5027241;28;20034;-54
2022/01/24 15:03:18;;;;;;;3.67;2.50;;;;;;;;;;5026903;28;20136;-53
2022/01/24 15:05:43;;;;;;;3.08;2.42;;;;;;;;;;5033961;28;20337;-52
2022/01/24 15:08:09;;;;;;;3.22;2.42;;;;;;;;;;5023983;28;20433;-52
2022/01/24 15:10:35;;;;;;;3.08;2.30;;;;;;;;;;5026936;28;20033;-55
2022/01/24 15:13:04;;;;;;;3.33;2.20;;;;;;;;;;5026610;28;20021;-53
2022/01/24 15:15:32;;;;;;;3.33;2.50;;;;;;;;;;5025738;28;20029;-54
2022/01/24 15:26:09;;;;;;;3.00;2.45;;;;;;;;;;5033430;28;20032;-53
2022/01/24 15:28:34;;;;;;;2.90;2.20;;;;;;;;;;5043768;28;20423;-53
2022/01/24 15:30:59;;;;;;;2.80;2.20;;;;;;;;;;5044368;28;20514;-54
2022/01/24 15:33:25;;;;;;;2.95;2.10;;;;;;;;;;5043305;28;20055;-54
2022/01/24 15:35:50;;;;;;;3.08;2.50;;;;;;;;;;5028660;28;20139;-54
2022/01/24 15:38:15;;;;;;;3.97;2.33;;;;;;;;;;5044250;28;20381;-55
2022/01/24 15:40:41;;;;;;;3.80;2.43;;;;;;;;;;5035287;28;20095;-54
2022/01/24 15:43:14;;;;;;;3.25;2.50;;;;;;;;;;5027669;28;20288;-53
2022/01/24 15:48:23;;;;;;;3.42;2.53;;;;;;;;;;5028367;28;20116;-52
2022/01/24 15:50:48;;;;;;;3.40;2.23;;;;;;;;;;5027742;28;20609;-53
2022/01/24 15:53:14;;;;;;;3.55;2.70;;;;;;;;;;5024531;28;20075;-53
2022/01/24 15:55:42;;;;;;;3.90;2.70;;;;;;;;;;5024458;28;20025;-53
2022/01/24 15:58:07;;;;;;;3.47;2.53;;;;;;;;;;5027555;28;20028;-52
2022/01/24 16:00:38;;;;;;;3.33;2.45;;;;;;;;;;5025814;28;20501;-53
2022/01/24 16:03:04;;;;;;;4.68;2.80;;;;;;;;;;5005130;28;20487;-53
2022/01/24 16:05:29;;;;;;;3.65;2.75;;;;;;;;;;5026731;28;20511;-54
2022/01/24 16:07:55;;;;;;;3.55;2.80;;;;;;;;;;5027358;28;20025;-52
2022/01/24 16:10:21;;;;;;;3.95;3.10;;;;;;;;;;5026009;28;20029;-52
2022/01/24 16:12:47;;;;;;;3.95;3.03;;;;;;;;;;5007872;28;20033;-52
2022/01/24 16:15:13;;;;;;;4.25;3.25;;;;;;;;;;5021421;28;20032;-53
2022/01/24 16:17:38;;;;;;;4.30;2.92;;;;;;;;;;5022156;28;20075;-53
2022/01/24 16:20:11;;;;;;;3.40;2.47;;;;;;;;;;5023889;28;20494;-53
2022/01/24 16:22:58;;;;;;;4.80;2.80;;;;;;;;;;5025882;28;20036;-53
2022/01/24 16:25:34;;;;;;;3.63;2.80;;;;;;;;;;5028405;28;20029;-54
2022/01/24 16:28:35;;;;;;;3.67;2.63;;;;;;;;;;5025496;28;20140;-51
2022/01/24 16:31:00;;;;;;;3.90;3.22;;;;;;;;;;4980222;28;20707;-52
2022/01/24 16:33:26;;;;;;;3.90;2.78;;;;;;;;;;5014837;28;20105;-50
2022/01/24 16:35:53;;;;;;;4.28;3.42;;;;;;;;;;5027304;28;20032;-53
2022/01/24 16:38:19;;;;;;;4.10;3.00;;;;;;;;;;5026462;28;20261;-55
2022/01/24 16:40:49;;;;;;;4.88;3.38;;;;;;;;;;5022220;28;20036;-53
2022/01/24 16:48:32;;;;;;;4.10;3.10;;;;;;;;;;5032695;28;20024;-52
2022/01/24 16:50:58;;;;;;;3.83;3.10;;;;;;;;;;5021955;28;20061;-52